• Join FlightAware (Why Join?)
  • Login
  • US Flag 
12:11PM EDT


 

Airport Tracker/Info


-or-


 

Live Flight TrackerFlight Track Log ✈ SKW6345 ✈ 20-Jun-2013 ✈ KBZN - KSFO

Flight Track Log - Related Links

Times and Time Zones

All times are in EDT time to prevent confusion due to time zone crossing. See the SKW6345 flight status page for this flight to view local times or setup timezone preferences in your user account.

Time Position Orientation Groundspeed Altitude Reporting Facility
EDT Latitude Longitude Course Direction KTS MPH feet Rate Location/Type
02:11PM 45.3819 -111.8114 230° Southwest  Level Estimated
02:11PM 45.7842 -111.2886 241° Southwest 210 242 9,000  Level Salt Lake Center
02:12PM 45.3112 -111.9276 229° Southwest  Level Estimated
02:12PM 45.7981 -111.3858 282° West 245 282 11,000  Level Salt Lake Center
02:13PM 45.2404 -112.0435 229° Southwest  Level Estimated
02:13PM 45.8222 -111.4967 287° West 273 314 12,600  Level Salt Lake Center
02:14PM 45.1695 -112.1592 229° Southwest  Level Estimated
02:14PM 45.7969 -111.6119 253° West 306 352 14,500  Level Salt Lake Center
02:15PM 45.0985 -112.2745 229° Southwest  Level Estimated
02:15PM 45.7378 -111.7394 236° Southwest 320 368 16,700  Level Salt Lake Center
02:16PM 45.6869 -111.8500 237° Southwest 328 377 18,200 1,320 Climbing Salt Lake Center
02:17PM 45.6347 -111.9628 237° Southwest 337 388 19,500 840 Climbing Salt Lake Center
02:18PM 45.5800 -112.0789 236° Southwest 348 400 20,000 780 Climbing Salt Lake Center
02:19PM 45.5219 -112.2019 236° Southwest 367 422 21,200 1,140 Climbing Salt Lake Center
02:20PM 45.4633 -112.3258 236° Southwest 375 432 22,400 1,260 Climbing Salt Lake Center
02:21PM 45.3928 -112.4794 237° Southwest 385 443 23,900 1,200 Climbing Salt Lake Center
02:22PM 45.3300 -112.6094 236° Southwest 391 450 25,000 960 Climbing Salt Lake Center
02:23PM 45.2708 -112.7347 236° Southwest 397 457 26,000 1,500 Climbing Salt Lake Center
02:24PM 45.1994 -112.8797 235° Southwest 399 459 28,100 1,680 Climbing Salt Lake Center
02:25PM 45.1458 -112.9950 237° Southwest 373 429 29,600 1,440 Climbing Salt Lake Center
02:26PM 45.0833 -113.1217 235° Southwest 352 405 31,100 780 Climbing Salt Lake Center
02:27PM 45.0314 -113.2311 236° Southwest 352 405 31,300 300 Climbing Salt Lake Center
02:28PM 44.9667 -113.3622 235° Southwest 364 419 31,800 300 Climbing Salt Lake Center
02:29PM 44.9114 -113.4750 235° Southwest 367 422 32,000 60 Climbing Salt Lake Center
02:30PM 44.8439 -113.6114 235° Southwest 380 437 32,000  Level Salt Lake Center
02:31PM 44.7853 -113.7325 236° Southwest 390 449 32,000  Level Salt Lake Center
02:32PM 44.7142 -113.8753 235° Southwest 399 459 32,000  Level Salt Lake Center
02:33PM 44.6558 -113.9936 235° Southwest 400 460 32,000  Level Salt Lake Center
02:34PM 44.5842 -114.1383 235° Southwest 403 464 32,000  Level Salt Lake Center
02:35PM 44.5208 -114.2633 235° Southwest 408 470 32,000  Level Salt Lake Center
02:37PM 44.4483 -114.4078 235° Southwest 407 468 32,000  Level Salt Lake Center
02:38PM 44.3856 -114.5319 235° Southwest 407 468 32,000  Level Salt Lake Center
02:39PM 44.3114 -114.6772 235° Southwest 410 472 32,000  Level Salt Lake Center
02:40PM 44.2492 -114.8006 235° Southwest 408 470 32,000  Level Salt Lake Center
02:41PM 44.1856 -114.9225 234° Southwest 406 467 32,000  Level Salt Lake Center
02:42PM 44.1094 -115.0667 234° Southwest 411 473 32,000  Level Salt Lake Center
02:43PM 44.0467 -115.1892 235° Southwest 407 468 32,000  Level Salt Lake Center
02:44PM 43.9731 -115.3317 234° Southwest 406 467 32,000  Level Salt Lake Center
02:45PM 43.9092 -115.4544 234° Southwest 408 470 32,000  Level Salt Lake Center
02:46PM 43.8350 -115.5958 234° Southwest 404 465 32,000  Level Salt Lake Center
02:47PM 43.7714 -115.7178 234° Southwest 406 467 32,000  Level Salt Lake Center
02:48PM 43.6922 -115.8542 231° Southwest 405 466 32,000  Level Salt Lake Center
02:49PM 43.6161 -115.9594 225° Southwest 405 466 32,000  Level Salt Lake Center
02:50PM 43.5408 -116.0664 226° Southwest 405 466 32,000  Level Salt Lake Center
02:51PM 43.4525 -116.1903 226° Southwest 404 465 32,000  Level Salt Lake Center
02:52PM 43.3772 -116.2969 226° Southwest 405 466 32,000  Level Salt Lake Center
02:53PM 43.2886 -116.4181 225° Southwest 402 463 32,000  Level Salt Lake Center
02:54PM 43.2133 -116.5231 225° Southwest 402 463 32,000  Level Salt Lake Center
02:55PM 43.1244 -116.6458 225° Southwest 405 466 32,000  Level Salt Lake Center
02:56PM 43.0481 -116.7519 225° Southwest 407 468 32,000  Level Salt Lake Center
02:57PM 42.9581 -116.8742 225° Southwest 408 470 32,000  Level Salt Lake Center
02:58PM 42.8811 -116.9789 225° Southwest 408 470 32,000  Level Salt Lake Center
02:59PM 42.7914 -117.1014 225° Southwest 407 468 32,000  Level Salt Lake Center
03:00PM 42.7147 -117.2047 225° Southwest 403 464 32,000  Level Salt Lake Center
03:01PM 42.6375 -117.3097 225° Southwest 409 471 32,000  Level Salt Lake Center
03:02PM 42.5475 -117.4286 224° Southwest 404 465 32,000  Level Salt Lake Center
03:03PM 42.4706 -117.5322 225° Southwest 406 467 32,000  Level Salt Lake Center
03:04PM 42.3819 -117.6522 225° Southwest 403 464 32,000  Level Salt Lake Center
03:05PM 42.3044 -117.7533 224° Southwest 403 464 32,000  Level Salt Lake Center
03:06PM 42.2197 -117.8672 225° Southwest 404 465 32,000  Level Salt Lake Center
03:08PM 42.1311 -117.9842 224° Southwest 404 465 32,000  Level Salt Lake Center
03:09PM 42.0539 -118.0856 224° Southwest 405 466 32,000  Level Salt Lake Center
03:10PM 41.9636 -118.2047 224° Southwest 407 468 32,000  Level Salt Lake Center
03:11PM 41.8850 -118.3053 224° Southwest 407 468 32,000  Level Salt Lake Center
03:12PM 41.7942 -118.4222 224° Southwest 405 466 32,000  Level Salt Lake Center
03:13PM 41.7167 -118.5236 224° Southwest 407 468 32,000  Level Salt Lake Center
03:14PM 41.6383 -118.6244 224° Southwest 408 470 32,000  Level Salt Lake Center
03:15PM 41.5475 -118.7417 224° Southwest 408 470 32,000  Level Salt Lake Center
03:16PM 41.4683 -118.8431 224° Southwest 409 471 32,000  Level Salt Lake Center
03:17PM 41.3761 -118.9611 224° Southwest 412 474 32,000  Level Salt Lake Center
03:18PM 41.2956 -119.0617 223° Southwest 414 476 32,000  Level Salt Lake Center
03:19PM 41.2031 -119.1792 224° Southwest 412 474 32,000  Level Salt Lake Center
03:20PM 41.1228 -119.2792 223° Southwest 413 475 32,000  Level Salt Lake Center
03:21PM 41.0450 -119.3783 224° Southwest 414 476 32,000  Level Oakland Center
03:22PM 40.9650 -119.4783 223° Southwest 414 476 32,000  Level Oakland Center
03:23PM 40.8844 -119.5775 223° Southwest 413 475 32,000  Level Oakland Center
03:24PM 40.7900 -119.6953 223° Southwest 417 480 32,000  Level Oakland Center
03:25PM 40.7067 -119.7972 223° Southwest 412 474 32,000  Level Oakland Center
03:26PM 40.6231 -119.9003 223° Southwest 412 474 32,000  Level Oakland Center
03:27PM 40.5367 -120.0067 223° Southwest 416 479 32,000  Level Oakland Center
03:28PM 40.4514 -120.1086 222° Southwest 416 479 32,000  Level Oakland Center
03:29PM 40.3689 -120.2111 223° Southwest 413 475 32,000  Level Oakland Center
03:30PM 40.2839 -120.3136 223° Southwest 414 476 32,000  Level Oakland Center
03:31PM 40.1828 -120.4369 223° Southwest 416 479 32,000  Level Oakland Center
03:32PM 40.0975 -120.5381 222° Southwest 415 478 32,000  Level Oakland Center
03:33PM 40.0103 -120.6447 223° Southwest 422 486 32,000  Level Oakland Center
03:34PM 39.9239 -120.7475 222° Southwest 422 486 32,000  Level Oakland Center
03:35PM 39.8372 -120.8489 222° Southwest 422 486 32,000  Level Oakland Center
03:36PM 39.7508 -120.9539 223° Southwest 424 488 32,000  Level Oakland Center
03:37PM 39.6639 -121.0575 223° Southwest 425 489 32,000  Level Oakland Center
03:38PM 39.5758 -121.1583 221° Southwest 425 489 32,000  Level Oakland Center
03:39PM 39.4894 -121.2617 223° Southwest 424 488 32,000  Level Oakland Center
03:40PM 39.3850 -121.3828 222° Southwest 423 487 32,000  Level Oakland Center
03:41PM 39.2978 -121.4839 222° Southwest 422 486 32,000  Level Oakland Center
03:42PM 39.2117 -121.5856 222° Southwest 422 486 32,000  Level Oakland Center
03:43PM 39.1250 -121.6853 222° Southwest 420 483 32,000  Level Oakland Center
03:44PM 39.0378 -121.7853 222° Southwest 422 486 32,000  Level Oakland Center
03:45PM 38.9497 -121.8872 222° Southwest 428 493 32,000  Level Oakland Center
03:46PM 38.8619 -121.9878 222° Southwest 425 489 32,000  Level Oakland Center
03:47PM 38.7569 -122.1075 222° Southwest 425 489 32,000 -420 Level Oakland Center
03:48PM 38.6800 -122.1953 222° Southwest 425 489 31,200 -1,320 Descending Oakland Center
03:49PM 38.5894 -122.2978 222° Southwest 434 499 29,300 -2,100 Descending Oakland Center
03:50PM 38.4822 -122.4183 221° Southwest 430 495 26,900 -2,160 Descending Oakland Center
03:51PM 38.3925 -122.5186 221° Southwest 432 497 24,900 -1,500 Descending Oakland Center
03:52PM 38.3044 -122.6189 222° Southwest 429 494 23,900 -1,740 Descending Oakland Center
03:54PM 38.1964 -122.6614 197° South 420 483 21,400 -3,420 Descending Oakland Center
03:55PM 38.0764 -122.6661 182° South 431 496 16,900 -4,440 Descending Oakland Center
03:56PM 37.9661 -122.6708 182° South 409 471 12,400 -2,880 Descending Oakland Center
03:57PM 37.8658 -122.6361 165° South 329 379 11,000 -840 Descending Oakland Center
03:57PM 37.8167 -122.5833 140° Southeast 293 337 11,000  Level Northern Cal TRACON
03:58PM 37.7667 -122.5167 133° Southeast 279 321 11,000  Level Northern Cal TRACON
03:59PM 37.7000 -122.4667 149° Southeast 251 289 11,000  Level Northern Cal TRACON
04:00PM 37.6500 -122.4167 142° Southeast 263 303 11,000  Level Northern Cal TRACON
04:01PM 37.6000 -122.3500 133° Southeast 267 307 11,000 -600 Level Northern Cal TRACON
04:02PM 37.5333 -122.3167 158° South 250 288 9,800 -1,620 Descending Northern Cal TRACON
04:03PM 37.4667 -122.2500 142° Southeast 257 296 7,700 -1,560 Descending Northern Cal TRACON
04:04PM 37.4500 -122.2000 113° Southeast 243 280 6,700 -1,080 Descending Northern Cal TRACON
04:05PM 37.4833 -122.1500 50° Northeast 218 251 5,700 -1,200 Descending Northern Cal TRACON
04:06PM 37.5333 -122.1833 332° Northwest 186 214 4,400 -1,320 Descending Northern Cal TRACON